Time;durP1;ratioP1;P1;durP2;ratioP2;P2;SDS_P1;SDS_P2;PMS_P1;PMS_P2;Temp;Humidity;BMP_temperature;BMP_pressure;BME280_temperature;BME280_humidity;BME280_pressure;Samples;Min_cycle;Max_cycle;Signal;HPM_P1;HPM_P2
2021/11/07 00:01:04;;;;;;;;;;;10.20;99.90;;;;;;5116802;28;19924;-73
2021/11/07 00:03:36;;;;;;;;;;;10.10;99.90;;;;;;5116747;28;19962;-73
2021/11/07 00:06:08;;;;;;;;;;;10.10;99.90;;;;;;5116590;28;19935;-73
2021/11/07 00:11:30;;;;;;;;;;;9.90;99.90;;;;;;5116018;28;19975;-73
2021/11/07 00:13:57;;;;;;;;;;;9.90;99.90;;;;;;5116422;28;19924;-73
2021/11/07 00:16:26;;;;;;;;;;;9.90;99.90;;;;;;5116304;28;19924;-73
2021/11/07 00:19:05;;;;;;;;;;;9.90;99.90;;;;;;5116189;28;19923;-73
2021/11/07 00:21:38;;;;;;;;;;;9.90;99.90;;;;;;5116210;28;19924;-74
2021/11/07 00:24:08;;;;;;;;;;;9.90;99.90;;;;;;5116339;28;19928;-74
2021/11/07 00:26:46;;;;;;;;;;;9.80;99.90;;;;;;5116113;28;19927;-74
2021/11/07 00:29:16;;;;;;;;;;;9.80;99.90;;;;;;5116192;28;19923;-74
2021/11/07 00:31:48;;;;;;;;;;;9.80;99.90;;;;;;5108117;28;19924;-74
2021/11/07 00:37:12;;;;;;;;;;;9.80;99.90;;;;;;5116014;28;19923;-73
2021/11/07 00:39:44;;;;;;;;;;;9.70;99.90;;;;;;5115976;28;19988;-73
2021/11/07 00:42:18;;;;;;;;;;;9.80;99.90;;;;;;5116170;28;19932;-73
2021/11/07 00:44:51;;;;;;;;;;;9.80;99.90;;;;;;5116094;28;19924;-73
2021/11/07 00:47:32;;;;;;;;;;;9.70;99.90;;;;;;5116080;28;19924;-73
2021/11/07 00:50:01;;;;;;;;;;;9.70;99.90;;;;;;5115920;28;19923;-74
2021/11/07 00:52:33;;;;;;;;;;;9.60;99.90;;;;;;5116044;28;20317;-74
2021/11/07 00:55:05;;;;;;;;;;;9.60;99.90;;;;;;5115855;28;19924;-73
2021/11/07 00:57:43;;;;;;;;;;;9.60;99.90;;;;;;5115609;28;19923;-73
2021/11/07 01:00:15;;;;;;;;;;;9.60;99.90;;;;;;5115501;28;19923;-73
2021/11/07 01:02:42;;;;;;;;;;;9.60;99.90;;;;;;5115494;28;19931;-74
2021/11/07 01:05:10;;;;;;;;;;;9.60;99.90;;;;;;5115480;28;19930;-73
2021/11/07 01:07:36;;;;;;;;;;;9.60;99.90;;;;;;5115384;28;19923;-73
2021/11/07 01:10:03;;;;;;;;;;;9.60;99.90;;;;;;5115695;28;19934;-73
2021/11/07 01:12:30;;;;;;;;;;;9.70;99.90;;;;;;5115676;28;19933;-73
2021/11/07 01:14:59;;;;;;;;;;;9.70;99.90;;;;;;5115763;28;19923;-73
2021/11/07 01:17:25;;;;;;;;;;;9.70;99.90;;;;;;5115278;28;19928;-73
2021/11/07 01:19:54;;;;;;;;;;;9.60;99.90;;;;;;5115679;28;19950;-73
2021/11/07 01:22:28;;;;;;;;;;;9.60;99.90;;;;;;5115281;28;19935;-73
2021/11/07 01:24:57;;;;;;;;;;;9.60;99.90;;;;;;5115386;28;19985;-73
2021/11/07 01:27:28;;;;;;;;;;;9.60;99.90;;;;;;5115309;28;19975;-74
2021/11/07 01:29:57;;;;;;;;;;;9.60;99.90;;;;;;5114858;28;19979;-74
2021/11/07 01:32:26;;;;;;;;;;;9.50;99.90;;;;;;5115008;28;20259;-74
2021/11/07 01:35:00;;;;;;;;;;;9.50;99.90;;;;;;5115283;28;19967;-74
2021/11/07 01:37:32;;;;;;;;;;;9.50;99.90;;;;;;5115251;28;20050;-74
2021/11/07 01:40:06;;;;;;;;;;;9.50;99.90;;;;;;5115320;28;19923;-74
2021/11/07 01:42:34;;;;;;;;;;;9.50;99.90;;;;;;5115329;28;20309;-74
2021/11/07 01:45:04;;;;;;;;;;;9.50;99.90;;;;;;5115210;28;19924;-73
2021/11/07 01:47:37;;;;;;;;;;;9.50;99.90;;;;;;5115232;28;19923;-73
2021/11/07 01:50:04;;;;;;;;;;;9.60;99.90;;;;;;5115238;28;19932;-73
2021/11/07 01:52:35;;;;;;;;;;;9.50;99.90;;;;;;5115019;28;20014;-73
2021/11/07 01:55:05;;;;;;;;;;;9.50;99.90;;;;;;5115014;28;19924;-73
2021/11/07 01:57:32;;;;;;;;;;;9.60;99.90;;;;;;5115107;28;19977;-73
2021/11/07 02:00:00;;;;;;;;;;;9.50;99.90;;;;;;5115218;28;19924;-73
2021/11/07 02:02:27;;;;;;;;;;;9.50;99.90;;;;;;5114998;28;19924;-74
2021/11/07 02:04:55;;;;;;;;;;;9.60;99.90;;;;;;5115025;28;20245;-73
2021/11/07 02:07:22;;;;;;;;;;;9.60;99.90;;;;;;5114915;28;19932;-73
2021/11/07 02:09:49;;;;;;;;;;;9.60;99.90;;;;;;5114875;28;19945;-73
2021/11/07 02:12:16;;;;;;;;;;;9.60;99.90;;;;;;5114872;28;20434;-73
2021/11/07 02:14:43;;;;;;;;;;;9.60;99.90;;;;;;5114921;28;19934;-73
2021/11/07 02:17:10;;;;;;;;;;;9.60;99.90;;;;;;5114699;28;20371;-73
2021/11/07 02:19:37;;;;;;;;;;;9.70;99.90;;;;;;5115469;28;19923;-73
2021/11/07 02:22:06;;;;;;;;;;;9.70;99.90;;;;;;5118318;28;20267;-73
2021/11/07 02:24:34;;;;;;;;;;;9.60;99.90;;;;;;5118495;28;19988;-73
2021/11/07 02:27:02;;;;;;;;;;;9.60;99.90;;;;;;5118558;28;19924;-73
2021/11/07 02:29:29;;;;;;;;;;;9.40;99.90;;;;;;5118549;28;19924;-74
2021/11/07 02:31:56;;;;;;;;;;;9.40;99.90;;;;;;5118308;28;19927;-73
2021/11/07 02:34:23;;;;;;;;;;;9.20;99.90;;;;;;5118322;28;19924;-73
2021/11/07 02:36:50;;;;;;;;;;;9.20;99.90;;;;;;5118163;28;19945;-73
2021/11/07 02:39:18;;;;;;;;;;;9.10;99.90;;;;;;5118083;28;20276;-73
2021/11/07 02:41:45;;;;;;;;;;;9.00;99.90;;;;;;5118169;28;19934;-73
2021/11/07 02:44:14;;;;;;;;;;;9.00;99.90;;;;;;5118196;28;19973;-73
2021/11/07 02:46:40;;;;;;;;;;;9.00;99.90;;;;;;5118088;28;20019;-73
2021/11/07 02:49:07;;;;;;;;;;;8.90;99.90;;;;;;5118116;28;19967;-73
2021/11/07 02:51:35;;;;;;;;;;;8.90;99.90;;;;;;5118169;28;19927;-73
2021/11/07 02:54:02;;;;;;;;;;;8.90;99.90;;;;;;5117841;28;20366;-73
2021/11/07 02:56:30;;;;;;;;;;;8.90;99.90;;;;;;5118197;28;19975;-73
2021/11/07 02:58:57;;;;;;;;;;;8.80;99.90;;;;;;5117931;28;19935;-73
2021/11/07 03:01:24;;;;;;;;;;;8.90;99.90;;;;;;5117794;28;19927;-73
2021/11/07 03:03:51;;;;;;;;;;;8.90;99.90;;;;;;5117694;28;19924;-73
2021/11/07 03:06:18;;;;;;;;;;;8.90;99.90;;;;;;5117546;28;19930;-73
2021/11/07 03:08:49;;;;;;;;;;;8.90;99.90;;;;;;5117627;28;20247;-73
2021/11/07 03:11:17;;;;;;;;;;;8.90;99.90;;;;;;5117608;28;19927;-73
2021/11/07 03:13:46;;;;;;;;;;;8.90;99.90;;;;;;5117520;28;19924;-73
2021/11/07 03:16:13;;;;;;;;;;;8.90;99.90;;;;;;5117439;28;19931;-73
2021/11/07 03:18:40;;;;;;;;;;;8.90;99.90;;;;;;5117461;28;19934;-73
2021/11/07 03:21:07;;;;;;;;;;;8.90;99.90;;;;;;5117433;28;19934;-73
2021/11/07 03:23:36;;;;;;;;;;;8.80;99.90;;;;;;5117349;28;19924;-73
2021/11/07 03:26:07;;;;;;;;;;;8.80;99.90;;;;;;5117364;28;19927;-73
2021/11/07 03:28:34;;;;;;;;;;;8.80;99.90;;;;;;5117546;28;20263;-73
2021/11/07 03:31:05;;;;;;;;;;;8.90;99.90;;;;;;5116493;28;19924;-73
2021/11/07 03:33:37;;;;;;;;;;;8.90;99.90;;;;;;5117120;28;19982;-73
2021/11/07 03:36:06;;;;;;;;;;;8.90;99.90;;;;;;5115941;28;19953;-74
2021/11/07 03:38:33;;;;;;;;;;;8.90;99.90;;;;;;5117030;28;20348;-74
2021/11/07 03:40:59;;;;;;;;;;;9.00;99.90;;;;;;5116807;28;19934;-74
2021/11/07 03:43:28;;;;;;;;;;;9.00;99.90;;;;;;5116936;28;19938;-73
2021/11/07 03:45:55;;;;;;;;;;;9.00;99.90;;;;;;5116903;28;19924;-74
2021/11/07 03:48:23;;;;;;;;;;;9.10;99.90;;;;;;5116817;28;19930;-74
2021/11/07 03:50:50;;;;;;;;;;;9.10;99.90;;;;;;5117020;28;19923;-74
2021/11/07 03:53:17;;;;;;;;;;;9.10;99.90;;;;;;5116762;28;19928;-74
2021/11/07 03:55:44;;;;;;;;;;;9.20;99.90;;;;;;5116748;28;19924;-74
2021/11/07 03:58:11;;;;;;;;;;;9.10;99.90;;;;;;5116700;28;19934;-73
2021/11/07 04:00:38;;;;;;;;;;;9.10;99.90;;;;;;5116484;28;19930;-73
2021/11/07 04:03:06;;;;;;;;;;;9.20;99.90;;;;;;5116435;28;20370;-73
2021/11/07 04:05:34;;;;;;;;;;;9.20;99.90;;;;;;5116621;28;19988;-73
2021/11/07 04:08:01;;;;;;;;;;;9.20;99.90;;;;;;5116729;28;19924;-73
2021/11/07 04:10:27;;;;;;;;;;;9.20;99.90;;;;;;5116529;28;20339;-73
2021/11/07 04:12:56;;;;;;;;;;;9.30;99.90;;;;;;5116374;28;19940;-73
2021/11/07 04:15:23;;;;;;;;;;;9.20;99.90;;;;;;5116297;28;20006;-73
2021/11/07 04:17:50;;;;;;;;;;;9.20;99.90;;;;;;5116367;28;19941;-73
2021/11/07 04:20:17;;;;;;;;;;;9.20;99.90;;;;;;5116174;28;20352;-73
2021/11/07 04:22:46;;;;;;;;;;;9.20;99.90;;;;;;5115943;28;19930;-73
2021/11/07 04:25:13;;;;;;;;;;;9.10;99.90;;;;;;5116204;28;19932;-73
2021/11/07 04:27:40;;;;;;;;;;;9.10;99.90;;;;;;5116112;28;20125;-73
2021/11/07 04:30:07;;;;;;;;;;;9.10;99.90;;;;;;5116159;28;20340;-73
2021/11/07 04:32:34;;;;;;;;;;;9.10;99.90;;;;;;5116315;28;19961;-73
2021/11/07 04:35:01;;;;;;;;;;;9.10;99.90;;;;;;5116017;28;20001;-73
2021/11/07 04:37:28;;;;;;;;;;;9.00;99.90;;;;;;5115987;28;19923;-73
2021/11/07 04:39:57;;;;;;;;;;;9.00;99.90;;;;;;5115870;28;19934;-73
2021/11/07 04:42:23;;;;;;;;;;;8.90;99.90;;;;;;5115583;28;20485;-73
2021/11/07 04:44:50;;;;;;;;;;;8.90;99.90;;;;;;5115822;28;20360;-73
2021/11/07 04:47:17;;;;;;;;;;;8.90;99.90;;;;;;5115718;28;19938;-73
2021/11/07 04:49:44;;;;;;;;;;;8.90;99.90;;;;;;5115938;28;19923;-73
2021/11/07 04:52:11;;;;;;;;;;;9.00;99.90;;;;;;5115810;28;20006;-73
2021/11/07 04:54:38;;;;;;;;;;;9.00;99.90;;;;;;5115783;28;20000;-73
2021/11/07 04:57:07;;;;;;;;;;;8.90;99.90;;;;;;5115561;28;20268;-73
2021/11/07 04:59:33;;;;;;;;;;;8.90;99.90;;;;;;5115747;28;19924;-73
2021/11/07 05:02:01;;;;;;;;;;;8.90;99.90;;;;;;5115850;28;20295;-73
2021/11/07 05:04:28;;;;;;;;;;;8.90;99.90;;;;;;5115727;28;19938;-73
2021/11/07 05:06:55;;;;;;;;;;;8.90;99.90;;;;;;5115436;28;19924;-73
2021/11/07 05:09:21;;;;;;;;;;;8.90;99.90;;;;;;5115414;28;19924;-73
2021/11/07 05:11:48;;;;;;;;;;;8.80;99.90;;;;;;5115765;28;19924;-73
2021/11/07 05:14:17;;;;;;;;;;;8.80;99.90;;;;;;5115700;28;19923;-73
2021/11/07 05:16:43;;;;;;;;;;;8.80;99.90;;;;;;5115383;28;19934;-73
2021/11/07 05:19:11;;;;;;;;;;;8.80;99.90;;;;;;5117134;28;19924;-76
2021/11/07 05:21:37;;;;;;;;;;;8.80;99.90;;;;;;5121187;28;20263;-76
2021/11/07 05:24:05;;;;;;;;;;;8.80;99.90;;;;;;5119276;28;20018;-74
2021/11/07 05:26:31;;;;;;;;;;;8.80;99.90;;;;;;5151922;22;19928;-73
2021/11/07 05:28:58;;;;;;;;;;;8.80;99.90;;;;;;5054791;28;19935;-74
2021/11/07 05:31:27;;;;;;;;;;;8.80;99.90;;;;;;5054666;28;20019;-74
2021/11/07 05:33:53;;;;;;;;;;;8.90;99.90;;;;;;5054632;28;19936;-74
2021/11/07 05:36:20;;;;;;;;;;;8.90;99.90;;;;;;5054562;28;20359;-74
2021/11/07 05:38:47;;;;;;;;;;;8.90;99.90;;;;;;5054632;28;19931;-74
2021/11/07 05:41:14;;;;;;;;;;;8.90;99.90;;;;;;5054721;28;19925;-74
2021/11/07 05:43:41;;;;;;;;;;;8.90;99.90;;;;;;5054703;28;19925;-74
2021/11/07 05:46:08;;;;;;;;;;;8.80;99.90;;;;;;5054639;28;19925;-74
2021/11/07 05:48:39;;;;;;;;;;;8.80;99.90;;;;;;5054481;28;19935;-74
2021/11/07 05:51:06;;;;;;;;;;;8.90;99.90;;;;;;5054590;28;19951;-74
2021/11/07 05:53:32;;;;;;;;;;;8.90;99.90;;;;;;5054453;28;19956;-74
2021/11/07 05:55:59;;;;;;;;;;;8.90;99.90;;;;;;5057180;28;20260;-74
2021/11/07 05:58:26;;;;;;;;;;;8.90;99.90;;;;;;5058376;28;19929;-74
2021/11/07 06:00:55;;;;;;;;;;;9.00;99.90;;;;;;5058279;28;19936;-74
2021/11/07 06:03:22;;;;;;;;;;;9.00;99.90;;;;;;5058058;28;19925;-74
2021/11/07 06:05:51;;;;;;;;;;;9.00;99.90;;;;;;5058113;28;19924;-74
2021/11/07 06:08:18;;;;;;;;;;;8.90;99.90;;;;;;5058348;28;19935;-74
2021/11/07 06:10:44;;;;;;;;;;;9.00;99.90;;;;;;5058363;28;19925;-74
2021/11/07 06:13:11;;;;;;;;;;;8.90;99.90;;;;;;5058058;28;19935;-74
2021/11/07 06:15:38;;;;;;;;;;;8.90;99.90;;;;;;5058119;28;19935;-74
2021/11/07 06:18:05;;;;;;;;;;;8.90;99.90;;;;;;5057974;28;19935;-75
2021/11/07 06:20:32;;;;;;;;;;;8.90;99.90;;;;;;5057985;28;19925;-76
2021/11/07 06:23:01;;;;;;;;;;;8.80;99.90;;;;;;5057951;28;19924;-76
2021/11/07 06:25:28;;;;;;;;;;;8.80;99.90;;;;;;5057970;28;20006;-76
2021/11/07 06:27:55;;;;;;;;;;;8.70;99.90;;;;;;5043177;28;19925;-76
2021/11/07 06:30:21;;;;;;;;;;;8.70;99.90;;;;;;5037822;28;20270;-75
2021/11/07 06:32:49;;;;;;;;;;;8.70;99.90;;;;;;5037815;28;20368;-75
2021/11/07 06:35:16;;;;;;;;;;;8.70;99.90;;;;;;5037701;28;20032;-75
2021/11/07 06:37:43;;;;;;;;;;;8.70;99.90;;;;;;5037559;28;19931;-75
2021/11/07 06:40:12;;;;;;;;;;;8.60;99.90;;;;;;5037607;28;19925;-74
2021/11/07 06:42:39;;;;;;;;;;;8.70;99.90;;;;;;5037639;28;19925;-74
2021/11/07 06:45:06;;;;;;;;;;;8.60;99.90;;;;;;5037545;28;19925;-74
2021/11/07 06:47:33;;;;;;;;;;;8.70;99.90;;;;;;5037421;28;19931;-75
2021/11/07 06:50:00;;;;;;;;;;;8.70;99.90;;;;;;5037770;28;19925;-75
2021/11/07 06:52:28;;;;;;;;;;;8.70;99.90;;;;;;5037683;28;19925;-75
2021/11/07 06:54:55;;;;;;;;;;;8.80;99.90;;;;;;5037260;28;20364;-75
2021/11/07 06:57:23;;;;;;;;;;;8.80;99.90;;;;;;5037361;28;19926;-73
2021/11/07 06:59:50;;;;;;;;;;;8.80;99.90;;;;;;5037282;28;19935;-74
2021/11/07 07:02:17;;;;;;;;;;;8.80;99.90;;;;;;5037164;28;20345;-74
2021/11/07 07:04:44;;;;;;;;;;;8.80;99.90;;;;;;5037127;28;19929;-74
2021/11/07 07:07:12;;;;;;;;;;;8.80;99.90;;;;;;5036919;28;19935;-74
2021/11/07 07:09:45;;;;;;;;;;;8.80;99.90;;;;;;5037060;28;19936;-74
2021/11/07 07:12:16;;;;;;;;;;;8.70;99.90;;;;;;5037239;28;19991;-74
2021/11/07 07:14:51;;;;;;;;;;;8.70;99.90;;;;;;5036837;28;19925;-74
2021/11/07 07:17:25;;;;;;;;;;;8.70;99.90;;;;;;5036919;28;19925;-74
2021/11/07 07:20:05;;;;;;;;;;;8.70;99.90;;;;;;5037074;28;19933;-74
2021/11/07 07:23:15;;;;;;;;;;;8.80;99.90;;;;;;5037088;28;19935;-72
2021/11/07 07:26:03;;;;;;;;;;;8.80;99.90;;;;;;5036754;28;20348;-74
2021/11/07 07:28:38;;;;;;;;;;;8.80;99.90;;;;;;5074862;28;20374;-74
2021/11/07 07:33:58;;;;;;;;;;;8.80;99.90;;;;;;5059265;28;19924;-74
2021/11/07 07:36:25;;;;;;;;;;;8.80;99.90;;;;;;5076605;28;19925;-74
2021/11/07 07:38:52;;;;;;;;;;;8.70;99.90;;;;;;5076646;28;19924;-74
2021/11/07 07:41:19;;;;;;;;;;;8.70;99.90;;;;;;5076574;28;19943;-75
2021/11/07 07:43:46;;;;;;;;;;;8.70;99.90;;;;;;5076370;28;20375;-74
2021/11/07 07:46:14;;;;;;;;;;;8.70;99.90;;;;;;5076432;28;20404;-74
2021/11/07 07:48:42;;;;;;;;;;;8.60;99.90;;;;;;5076261;28;19978;-74
2021/11/07 07:51:09;;;;;;;;;;;8.70;99.90;;;;;;5076371;28;19964;-74
2021/11/07 07:53:36;;;;;;;;;;;8.60;99.90;;;;;;5076399;28;19924;-74
2021/11/07 07:56:03;;;;;;;;;;;8.70;99.90;;;;;;5076366;28;19978;-74
2021/11/07 07:58:30;;;;;;;;;;;8.70;99.90;;;;;;5076056;28;19935;-74
2021/11/07 08:00:57;;;;;;;;;;;8.70;99.90;;;;;;5075977;28;20230;-73
2021/11/07 08:03:25;;;;;;;;;;;8.70;99.90;;;;;;5075931;28;19932;-73
2021/11/07 08:05:53;;;;;;;;;;;8.70;99.90;;;;;;5076170;28;19924;-72
2021/11/07 08:08:20;;;;;;;;;;;8.80;99.90;;;;;;5075815;28;19935;-72
2021/11/07 08:10:47;;;;;;;;;;;8.80;99.90;;;;;;5075842;28;19930;-72
2021/11/07 08:13:13;;;;;;;;;;;8.80;99.90;;;;;;5075764;28;20311;-72
2021/11/07 08:15:40;;;;;;;;;;;8.80;99.90;;;;;;5075726;28;19925;-74
2021/11/07 08:18:07;;;;;;;;;;;8.30;99.90;;;;;;5075071;28;19924;-74
2021/11/07 08:20:35;;;;;;;;;;;8.80;99.90;;;;;;5075670;28;19925;-74
2021/11/07 08:23:02;;;;;;;;;;;8.80;99.90;;;;;;5075800;28;19946;-74
2021/11/07 08:25:30;;;;;;;;;;;8.90;99.90;;;;;;5075712;28;20276;-74
2021/11/07 08:28:00;;;;;;;;;;;8.90;99.90;;;;;;5075429;28;19978;-74
2021/11/07 08:30:27;;;;;;;;;;;8.90;99.90;;;;;;5075689;28;19932;-74
2021/11/07 08:32:54;;;;;;;;;;;8.90;99.90;;;;;;5075625;28;19928;-74
2021/11/07 08:35:21;;;;;;;;;;;8.90;99.90;;;;;;5075400;28;19931;-74
2021/11/07 08:37:53;;;;;;;;;;;9.00;99.90;;;;;;5075406;28;19924;-74
2021/11/07 08:40:26;;;;;;;;;;;9.00;99.90;;;;;;5075438;28;19928;-74
2021/11/07 08:42:58;;;;;;;;;;;9.00;99.90;;;;;;5075259;28;20269;-74
2021/11/07 09:02:06;;;;;;;;;;;9.10;99.90;;;;;;5075188;28;19989;-73
2021/11/07 09:04:41;;;;;;;;;;;9.10;99.90;;;;;;5075232;28;20234;-74
2021/11/07 09:07:18;;;;;;;;;;;9.10;99.90;;;;;;5074480;28;19997;-73
2021/11/07 09:09:47;;;;;;;;;;;9.20;99.90;;;;;;5075137;28;19925;-74
2021/11/07 09:12:13;;;;;;;;;;;9.20;99.90;;;;;;5074090;28;20320;-73
2021/11/07 09:14:40;;;;;;;;;;;9.20;99.90;;;;;;5074487;28;19936;-72
2021/11/07 09:17:07;;;;;;;;;;;9.20;99.90;;;;;;5074859;28;19935;-74
2021/11/07 09:19:36;;;;;;;;;;;9.20;99.90;;;;;;5075044;28;19939;-74
2021/11/07 09:22:07;;;;;;;;;;;9.20;99.90;;;;;;5074850;28;19924;-72
2021/11/07 09:24:38;;;;;;;;;;;9.30;99.90;;;;;;5074819;28;20277;-73
2021/11/07 09:27:13;;;;;;;;;;;9.30;99.90;;;;;;5074782;28;20329;-73
2021/11/07 09:29:51;;;;;;;;;;;9.30;99.90;;;;;;5075796;28;19935;-75
2021/11/07 09:32:35;;;;;;;;;;;9.40;99.90;;;;;;5079004;28;19994;-75
2021/11/07 09:35:16;;;;;;;;;;;9.30;99.90;;;;;;5081347;28;20048;-73
2021/11/07 09:37:47;;;;;;;;;;;9.60;99.90;;;;;;5078803;28;20028;-73
2021/11/07 09:40:15;;;;;;;;;;;9.40;99.90;;;;;;5079237;28;19934;-73
2021/11/07 09:43:09;;;;;;;;;;;9.40;99.90;;;;;;5079052;28;19924;-70
2021/11/07 09:45:44;;;;;;;;;;;9.50;99.90;;;;;;5078652;28;20359;-70
2021/11/07 09:48:14;;;;;;;;;;;9.50;99.90;;;;;;5078929;28;20327;-70
2021/11/07 09:50:44;;;;;;;;;;;9.60;99.90;;;;;;5078578;28;19935;-70
2021/11/07 09:53:11;;;;;;;;;;;9.60;99.90;;;;;;5078524;28;20344;-70
2021/11/07 09:55:39;;;;;;;;;;;9.50;99.90;;;;;;5078442;28;20268;-70
2021/11/07 09:58:07;;;;;;;;;;;9.60;99.90;;;;;;5078388;28;19924;-70
2021/11/07 10:00:35;;;;;;;;;;;9.70;99.90;;;;;;5078338;28;19925;-71
2021/11/07 10:03:02;;;;;;;;;;;9.80;99.90;;;;;;5078520;28;19925;-70
2021/11/07 10:05:29;;;;;;;;;;;9.80;99.90;;;;;;5078233;28;19924;-71
2021/11/07 10:07:57;;;;;;;;;;;9.80;99.90;;;;;;5078413;28;19925;-71
2021/11/07 10:10:29;;;;;;;;;;;9.90;99.90;;;;;;5078469;28;20005;-70
2021/11/07 10:12:57;;;;;;;;;;;10.00;99.90;;;;;;5078423;28;19924;-70
2021/11/07 10:15:28;;;;;;;;;;;10.00;99.90;;;;;;5077999;28;19960;-70
2021/11/07 10:17:57;;;;;;;;;;;10.10;99.90;;;;;;5078166;28;20015;-70
2021/11/07 10:20:27;;;;;;;;;;;10.10;99.90;;;;;;5078019;28;19928;-70
2021/11/07 10:22:57;;;;;;;;;;;10.10;99.90;;;;;;5077888;28;20054;-70
2021/11/07 10:25:30;;;;;;;;;;;10.10;99.90;;;;;;5077741;28;20364;-71
2021/11/07 10:27:58;;;;;;;;;;;10.10;99.90;;;;;;5077760;28;19925;-71
2021/11/07 10:30:29;;;;;;;;;;;10.10;99.90;;;;;;5078007;28;19932;-70
2021/11/07 10:33:05;;;;;;;;;;;10.10;99.90;;;;;;5077861;28;19968;-70
2021/11/07 10:41:27;;;;;;;;;;;10.20;99.90;;;;;;5076270;28;19921;-73
2021/11/07 10:44:15;;;;;;;;;;;10.20;99.90;;;;;;5077592;28;19928;-72
2021/11/07 10:46:58;;;;;;;;;;;10.30;99.90;;;;;;5077743;28;19924;-72
2021/11/07 10:52:18;;;;;;;;;;;10.30;99.90;;;;;;5077720;28;20413;-71
2021/11/07 10:54:45;;;;;;;;;;;10.20;99.90;;;;;;5077318;28;19924;-71
2021/11/07 10:57:15;;;;;;;;;;;10.20;99.90;;;;;;5077570;28;19924;-71
2021/11/07 10:59:42;;;;;;;;;;;10.30;99.90;;;;;;5077381;28;19935;-71
2021/11/07 11:02:23;;;;;;;;;;;10.30;99.90;;;;;;5077258;28;19943;-72
2021/11/07 11:05:01;;;;;;;;;;;10.40;99.90;;;;;;5076299;28;20037;-70
2021/11/07 11:07:28;;;;;;;;;;;10.40;99.90;;;;;;5077252;28;20026;-71
2021/11/07 11:10:14;;;;;;;;;;;10.50;99.90;;;;;;5078416;28;19924;-71
2021/11/07 11:13:01;;;;;;;;;;;10.50;99.90;;;;;;5077257;28;19990;-71
2021/11/07 11:15:36;;;;;;;;;;;10.50;99.90;;;;;;5077250;28;20349;-70
2021/11/07 11:18:11;;;;;;;;;;;10.60;99.90;;;;;;5076927;28;20348;-70
2021/11/07 11:21:03;;;;;;;;;;;10.60;99.90;;;;;;5076870;28;20451;-70
2021/11/07 11:23:49;;;;;;;;;;;10.60;99.90;;;;;;5077044;28;20028;-70
2021/11/07 11:26:26;;;;;;;;;;;10.60;99.90;;;;;;5076689;28;19974;-71
2021/11/07 11:29:03;;;;;;;;;;;10.60;99.90;;;;;;5076700;28;20436;-70
2021/11/07 11:31:35;;;;;;;;;;;10.60;99.90;;;;;;5076773;28;20376;-70
2021/11/07 11:34:08;;;;;;;;;;;10.60;99.90;;;;;;5076717;28;19924;-70
2021/11/07 11:36:43;;;;;;;;;;;10.60;99.90;;;;;;5076571;28;20261;-70
2021/11/07 11:39:15;;;;;;;;;;;10.60;99.90;;;;;;5076421;28;20355;-70
2021/11/07 11:41:46;;;;;;;;;;;10.60;99.90;;;;;;5076834;28;20264;-70
2021/11/07 11:44:14;;;;;;;;;;;10.70;99.90;;;;;;5076540;28;19924;-71
2021/11/07 11:46:47;;;;;;;;;;;10.70;99.90;;;;;;5076286;28;19928;-71
2021/11/07 11:49:37;;;;;;;;;;;10.80;99.90;;;;;;5076540;28;19935;-70
2021/11/07 11:57:49;;;;;;;;;;;10.80;99.90;;;;;;5034602;28;19937;-70
2021/11/07 12:03:16;;;;;;;;;;;10.80;99.90;;;;;;4975856;28;20016;-71
2021/11/07 12:05:45;;;;;;;;;;;10.70;99.90;;;;;;4975712;28;19937;-71
2021/11/07 12:08:18;;;;;;;;;;;10.70;99.90;;;;;;4975843;28;19981;-73
2021/11/07 12:10:50;;;;;;;;;;;10.70;99.90;;;;;;4975492;28;19984;-72
2021/11/07 12:13:32;;;;;;;;;;;10.70;99.90;;;;;;4977198;28;19937;-70
2021/11/07 12:16:04;;;;;;;;;;;10.80;99.90;;;;;;4975637;28;19926;-70
2021/11/07 12:18:31;;;;;;;;;;;10.80;99.90;;;;;;4975366;28;19930;-70
2021/11/07 12:20:58;;;;;;;;;;;10.80;99.90;;;;;;4975358;28;19926;-70
2021/11/07 12:23:28;;;;;;;;;;;10.90;99.90;;;;;;4975365;28;20343;-70
2021/11/07 12:25:56;;;;;;;;;;;10.90;99.90;;;;;;4975406;28;20329;-70
2021/11/07 12:28:38;;;;;;;;;;;10.90;99.90;;;;;;4974282;28;19926;-70
2021/11/07 12:31:04;;;;;;;;;;;10.90;99.90;;;;;;4999678;28;20377;-71
2021/11/07 12:33:37;;;;;;;;;;;10.90;99.90;;;;;;5013297;28;19930;-71
2021/11/07 12:36:10;;;;;;;;;;;10.90;99.90;;;;;;5013771;28;19938;-71
2021/11/07 12:41:23;;;;;;;;;;;10.80;99.90;;;;;;5075363;28;19942;-71
2021/11/07 12:43:51;;;;;;;;;;;10.80;99.90;;;;;;5075437;28;19924;-71
2021/11/07 12:46:30;;;;;;;;;;;10.80;99.90;;;;;;5075247;28;19924;-71
2021/11/07 12:48:57;;;;;;;;;;;10.70;99.90;;;;;;5075359;28;19924;-71
2021/11/07 12:51:31;;;;;;;;;;;10.70;99.90;;;;;;5075179;28;19936;-71
2021/11/07 12:54:04;;;;;;;;;;;10.80;99.90;;;;;;5075067;28;19924;-71
2021/11/07 12:56:42;;;;;;;;;;;10.80;99.90;;;;;;5075414;28;20027;-71
2021/11/07 12:59:09;;;;;;;;;;;10.80;99.90;;;;;;5074957;28;19924;-71
2021/11/07 13:01:55;;;;;;;;;;;10.90;99.90;;;;;;5075058;28;19925;-71
2021/11/07 13:04:22;;;;;;;;;;;10.90;99.90;;;;;;5074836;28;20244;-71
2021/11/07 13:06:51;;;;;;;;;;;11.00;99.90;;;;;;5074845;28;19924;-71
2021/11/07 13:09:20;;;;;;;;;;;11.00;99.90;;;;;;5074886;28;19924;-70
2021/11/07 13:11:53;;;;;;;;;;;11.00;99.90;;;;;;5074967;28;19985;-71
2021/11/07 13:14:32;;;;;;;;;;;11.10;99.90;;;;;;5074894;28;20341;-70
2021/11/07 13:17:21;;;;;;;;;;;11.00;99.90;;;;;;5075357;28;20339;-70
2021/11/07 13:19:58;;;;;;;;;;;11.00;99.90;;;;;;5075054;28;19950;-71
2021/11/07 13:22:39;;;;;;;;;;;11.10;99.90;;;;;;5074979;28;19986;-70
2021/11/07 13:25:15;;;;;;;;;;;11.10;99.90;;;;;;5075166;28;19924;-71
2021/11/07 13:27:47;;;;;;;;;;;11.10;99.90;;;;;;5074493;28;20367;-71
2021/11/07 13:30:17;;;;;;;;;;;11.10;99.90;;;;;;5074839;28;19925;-70
2021/11/07 13:32:44;;;;;;;;;;;11.20;99.90;;;;;;5074854;28;19925;-71
2021/11/07 13:35:11;;;;;;;;;;;11.20;99.90;;;;;;5074584;28;19924;-71
2021/11/07 13:37:41;;;;;;;;;;;11.10;99.90;;;;;;5074518;28;20011;-71
2021/11/07 13:40:09;;;;;;;;;;;11.20;99.90;;;;;;5074643;28;20329;-70
2021/11/07 13:42:37;;;;;;;;;;;11.20;99.90;;;;;;5074852;28;19995;-71
2021/11/07 13:45:06;;;;;;;;;;;11.20;99.90;;;;;;5074669;28;19932;-70
2021/11/07 13:47:33;;;;;;;;;;;11.10;99.90;;;;;;5074652;28;19924;-71
2021/11/07 13:50:02;;;;;;;;;;;11.10;99.90;;;;;;5074468;28;19925;-70
2021/11/07 13:52:29;;;;;;;;;;;11.10;99.90;;;;;;5074603;28;20364;-70
2021/11/07 13:54:56;;;;;;;;;;;11.10;99.90;;;;;;5074597;28;19924;-70
2021/11/07 13:57:26;;;;;;;;;;;11.10;99.90;;;;;;5074595;28;20253;-70
2021/11/07 13:59:53;;;;;;;;;;;11.10;99.90;;;;;;5074387;28;19925;-70
2021/11/07 14:02:21;;;;;;;;;;;11.10;99.90;;;;;;5074471;28;19924;-70
2021/11/07 14:04:49;;;;;;;;;;;11.10;99.90;;;;;;5074364;28;19925;-70
2021/11/07 14:07:17;;;;;;;;;;;11.10;99.90;;;;;;5074385;28;20234;-70
2021/11/07 14:09:59;;;;;;;;;;;11.00;99.90;;;;;;5074273;28;20374;-70
2021/11/07 14:12:27;;;;;;;;;;;11.00;99.90;;;;;;5074655;28;19924;-70
2021/11/07 14:15:03;;;;;;;;;;;11.00;99.90;;;;;;5074403;28;19928;-70
2021/11/07 14:17:32;;;;;;;;;;;11.00;99.90;;;;;;5078001;28;20272;-71
2021/11/07 14:19:59;;;;;;;;;;;11.00;99.90;;;;;;5077985;28;19924;-70
2021/11/07 14:22:26;;;;;;;;;;;10.90;99.90;;;;;;5078075;28;19925;-70
2021/11/07 14:24:53;;;;;;;;;;;10.90;99.90;;;;;;5077916;28;19986;-71
2021/11/07 14:27:25;;;;;;;;;;;10.90;99.90;;;;;;5077739;28;19925;-70
2021/11/07 14:29:59;;;;;;;;;;;10.90;99.90;;;;;;5077796;28;19928;-70
2021/11/07 14:32:30;;;;;;;;;;;11.00;99.90;;;;;;5078010;28;19924;-70
2021/11/07 14:35:02;;;;;;;;;;;10.90;99.90;;;;;;5077914;28;19943;-70
2021/11/07 14:37:33;;;;;;;;;;;10.90;99.90;;;;;;5077621;28;19971;-70
2021/11/07 14:40:04;;;;;;;;;;;10.90;99.90;;;;;;5077619;28;19924;-70
2021/11/07 14:42:45;;;;;;;;;;;10.90;99.90;;;;;;5077682;28;20367;-70
2021/11/07 14:48:02;;;;;;;;;;;10.80;99.90;;;;;;5063816;28;19920;-70
2021/11/07 14:50:38;;;;;;;;;;;10.90;99.90;;;;;;5077824;28;19925;-70
2021/11/07 14:53:08;;;;;;;;;;;10.80;99.90;;;;;;5077362;28;19924;-70
2021/11/07 14:55:38;;;;;;;;;;;10.90;99.90;;;;;;5077289;28;19939;-71
2021/11/07 15:00:57;;;;;;;;;;;10.80;99.90;;;;;;5074446;28;19925;-70
2021/11/07 15:03:27;;;;;;;;;;;10.80;99.90;;;;;;5077285;28;20370;-70
2021/11/07 15:06:17;;;;;;;;;;;10.70;99.90;;;;;;5077098;28;19928;-70
2021/11/07 15:08:48;;;;;;;;;;;10.70;99.90;;;;;;5077160;28;20335;-70
2021/11/07 15:11:28;;;;;;;;;;;10.70;99.90;;;;;;5076770;28;19924;-70
2021/11/07 15:13:59;;;;;;;;;;;10.70;99.90;;;;;;5076917;28;19924;-70
2021/11/07 15:16:29;;;;;;;;;;;10.60;99.90;;;;;;5076989;28;20015;-70
2021/11/07 15:19:00;;;;;;;;;;;10.50;99.90;;;;;;5076798;28;20345;-70
2021/11/07 15:21:34;;;;;;;;;;;10.50;99.90;;;;;;5076862;28;19936;-70
2021/11/07 15:24:03;;;;;;;;;;;10.60;99.90;;;;;;5076812;28;19930;-70
2021/11/07 15:26:32;;;;;;;;;;;10.50;99.90;;;;;;5076519;28;19932;-70
2021/11/07 15:29:01;;;;;;;;;;;10.50;99.90;;;;;;5076839;28;19983;-71
2021/11/07 15:31:30;;;;;;;;;;;10.50;99.90;;;;;;5076842;28;19924;-70
2021/11/07 15:33:58;;;;;;;;;;;10.40;99.90;;;;;;5078465;28;19924;-70